Time;durP1;ratioP1;P1;durP2;ratioP2;P2;SDS_P1;SDS_P2;PMS_P1;PMS_P2;Temp;Humidity;BMP_temperature;BMP_pressure;BME280_temperature;BME280_humidity;BME280_pressure;Samples;Min_cycle;Max_cycle;Signal;HPM_P1;HPM_P2
2023/05/29 00:01:51;;;;;;;25.15;12.20;;;;;;;;;;6279683;22;20017;-84
2023/05/29 00:04:17;;;;;;;24.60;12.10;;;;;;;;;;6254129;22;20095;-84
2023/05/29 00:06:43;;;;;;;22.80;11.55;;;;;;;;;;6278512;22;20030;-84
2023/05/29 00:09:09;;;;;;;19.40;9.40;;;;;;;;;;6253834;22;20011;-84
2023/05/29 00:11:35;;;;;;;21.65;10.68;;;;;;;;;;6279864;22;20068;-84
2023/05/29 00:14:02;;;;;;;22.42;9.57;;;;;;;;;;6279440;22;20145;-84
2023/05/29 00:16:29;;;;;;;25.73;10.32;;;;;;;;;;6280243;22;20008;-84
2023/05/29 00:18:56;;;;;;;28.60;13.05;;;;;;;;;;6279467;22;20023;-84
2023/05/29 00:21:22;;;;;;;22.55;10.63;;;;;;;;;;6279684;22;20011;-84
2023/05/29 00:23:48;;;;;;;19.88;9.60;;;;;;;;;;6308018;22;20075;-84
2023/05/29 00:26:16;;;;;;;21.15;11.02;;;;;;;;;;6280036;22;20067;-84
2023/05/29 00:28:42;;;;;;;23.83;10.70;;;;;;;;;;6254571;22;20018;-84
2023/05/29 00:31:09;;;;;;;23.40;11.23;;;;;;;;;;6280329;22;20015;-84
2023/05/29 00:33:35;;;;;;;28.65;9.93;;;;;;;;;;6280019;22;20342;-84
2023/05/29 00:36:01;;;;;;;20.98;13.40;;;;;;;;;;6253689;22;20090;-84
2023/05/29 00:38:27;;;;;;;29.05;11.85;;;;;;;;;;6280173;22;20015;-84
2023/05/29 00:40:53;;;;;;;22.00;13.35;;;;;;;;;;6306902;22;20090;-83
2023/05/29 00:43:19;;;;;;;22.42;10.60;;;;;;;;;;6279692;22;20062;-84
2023/05/29 00:45:45;;;;;;;22.98;15.98;;;;;;;;;;6279575;22;20022;-84
2023/05/29 00:48:11;;;;;;;19.23;10.25;;;;;;;;;;6279572;22;20414;-84
2023/05/29 00:50:37;;;;;;;27.90;10.85;;;;;;;;;;6279015;22;20037;-84
2023/05/29 00:53:04;;;;;;;22.15;9.98;;;;;;;;;;6279795;22;20063;-85
2023/05/29 00:55:30;;;;;;;23.65;12.13;;;;;;;;;;6307114;22;20334;-84
2023/05/29 00:57:57;;;;;;;24.88;10.35;;;;;;;;;;6307974;22;20363;-84
2023/05/29 01:00:23;;;;;;;24.00;15.07;;;;;;;;;;6253876;22;20019;-84
2023/05/29 01:02:49;;;;;;;21.95;11.25;;;;;;;;;;6280916;22;20015;-84
2023/05/29 01:05:15;;;;;;;24.08;14.50;;;;;;;;;;6255552;22;20041;-83
2023/05/29 01:07:42;;;;;;;20.58;10.45;;;;;;;;;;6282741;22;20011;-84
2023/05/29 01:10:08;;;;;;;23.48;11.82;;;;;;;;;;6281102;22;20060;-84
2023/05/29 01:12:43;;;;;;;22.23;9.77;;;;;;;;;;6281624;22;20057;-84
2023/05/29 01:15:26;;;;;;;25.35;12.02;;;;;;;;;;6280929;22;20090;-84
2023/05/29 01:17:55;;;;;;;24.33;10.50;;;;;;;;;;6282047;22;20022;-84
2023/05/29 01:20:30;;;;;;;25.70;17.02;;;;;;;;;;6281534;22;20314;-84
2023/05/29 01:23:15;;;;;;;23.33;11.70;;;;;;;;;;6281885;22;20426;-83
2023/05/29 01:25:59;;;;;;;24.42;11.32;;;;;;;;;;6309766;22;20560;-84
2023/05/29 01:28:27;;;;;;;23.05;12.40;;;;;;;;;;6255932;22;20133;-84
2023/05/29 01:30:54;;;;;;;23.00;13.35;;;;;;;;;;6282030;22;20007;-84
2023/05/29 01:33:20;;;;;;;17.27;10.88;;;;;;;;;;6256268;22;20018;-84
2023/05/29 01:35:46;;;;;;;24.38;12.55;;;;;;;;;;6309895;22;20007;-83
2023/05/29 01:38:13;;;;;;;27.92;14.20;;;;;;;;;;6256013;22;20060;-84
2023/05/29 01:40:39;;;;;;;28.85;11.13;;;;;;;;;;6280731;22;20011;-84
2023/05/29 01:43:05;;;;;;;26.75;12.57;;;;;;;;;;6308422;22;20015;-84
2023/05/29 01:45:31;;;;;;;20.80;10.93;;;;;;;;;;6308966;22;20097;-83
2023/05/29 01:47:57;;;;;;;27.00;13.15;;;;;;;;;;6280884;22;20015;-84
2023/05/29 01:50:24;;;;;;;19.48;11.23;;;;;;;;;;6280828;22;20019;-84
2023/05/29 01:52:50;;;;;;;22.13;13.02;;;;;;;;;;6281325;22;20442;-84
2023/05/29 01:55:16;;;;;;;25.35;13.05;;;;;;;;;;6255420;22;20057;-83
2023/05/29 01:57:42;;;;;;;26.00;12.63;;;;;;;;;;6281339;22;20015;-84
2023/05/29 02:00:08;;;;;;;20.70;11.57;;;;;;;;;;6309037;22;20015;-84
2023/05/29 02:02:43;;;;;;;29.35;11.63;;;;;;;;;;6281642;22;20092;-84
2023/05/29 02:05:10;;;;;;;18.23;10.25;;;;;;;;;;6281258;22;20106;-85
2023/05/29 02:07:39;;;;;;;22.50;13.77;;;;;;;;;;6255478;22;20069;-84
2023/05/29 02:10:06;;;;;;;26.70;21.10;;;;;;;;;;6281281;22;20016;-84
2023/05/29 02:12:32;;;;;;;23.50;10.32;;;;;;;;;;6308799;22;20011;-84
2023/05/29 02:14:58;;;;;;;22.88;10.93;;;;;;;;;;6255291;22;20063;-84
2023/05/29 02:17:24;;;;;;;28.50;13.00;;;;;;;;;;6255184;22;20007;-84
2023/05/29 02:19:51;;;;;;;27.85;10.63;;;;;;;;;;6308616;22;20022;-85
2023/05/29 02:22:17;;;;;;;21.90;11.95;;;;;;;;;;6309026;22;20090;-83
2023/05/29 02:24:44;;;;;;;29.95;12.18;;;;;;;;;;6255228;22;20015;-84
2023/05/29 02:27:10;;;;;;;26.10;12.05;;;;;;;;;;6280138;22;20019;-84
2023/05/29 02:29:36;;;;;;;29.77;22.42;;;;;;;;;;6308948;22;20065;-84
2023/05/29 02:32:03;;;;;;;25.65;12.05;;;;;;;;;;6280797;22;20373;-83
2023/05/29 02:34:29;;;;;;;30.52;14.93;;;;;;;;;;6308855;22;20030;-84
2023/05/29 02:36:55;;;;;;;26.45;11.10;;;;;;;;;;6255204;22;20457;-84
2023/05/29 02:39:21;;;;;;;25.23;9.68;;;;;;;;;;6255290;22;20022;-84
2023/05/29 02:41:47;;;;;;;23.80;10.60;;;;;;;;;;6281035;22;20323;-84
2023/05/29 02:44:13;;;;;;;23.50;12.32;;;;;;;;;;6280087;22;20039;-84
2023/05/29 02:46:39;;;;;;;26.75;12.18;;;;;;;;;;6281452;22;20027;-84
2023/05/29 02:49:05;;;;;;;30.00;12.25;;;;;;;;;;6279935;22;20045;-84
2023/05/29 02:51:32;;;;;;;23.65;12.27;;;;;;;;;;6255240;22;20064;-85
2023/05/29 02:53:58;;;;;;;20.75;9.90;;;;;;;;;;6275681;22;20026;-84
2023/05/29 02:56:24;;;;;;;28.42;9.88;;;;;;;;;;6275267;22;20034;-84
2023/05/29 02:58:51;;;;;;;19.63;12.52;;;;;;;;;;6275932;22;20073;-84
2023/05/29 03:01:17;;;;;;;19.45;11.95;;;;;;;;;;6249057;22;20012;-84
2023/05/29 03:03:43;;;;;;;23.95;12.57;;;;;;;;;;6276185;22;20023;-84
2023/05/29 03:06:12;;;;;;;23.27;13.70;;;;;;;;;;6251113;22;20016;-84
2023/05/29 03:08:44;;;;;;;23.95;11.90;;;;;;;;;;6276127;22;20069;-84
2023/05/29 03:11:11;;;;;;;26.83;10.60;;;;;;;;;;6276017;22;20043;-84
2023/05/29 03:13:37;;;;;;;22.70;14.48;;;;;;;;;;6276337;22;20012;-84
2023/05/29 03:16:03;;;;;;;19.20;11.52;;;;;;;;;;6274061;22;20015;-84
2023/05/29 03:18:29;;;;;;;23.98;12.93;;;;;;;;;;6275806;22;20087;-84
2023/05/29 03:20:55;;;;;;;24.80;13.48;;;;;;;;;;6275525;22;20442;-82
2023/05/29 03:23:21;;;;;;;25.63;10.20;;;;;;;;;;6276389;22;20453;-84
2023/05/29 03:25:47;;;;;;;22.30;11.60;;;;;;;;;;6275574;22;20020;-83
2023/05/29 03:28:13;;;;;;;25.05;14.90;;;;;;;;;;6250187;22;20338;-84
2023/05/29 03:30:40;;;;;;;22.48;11.73;;;;;;;;;;6275400;22;20012;-84
2023/05/29 03:33:06;;;;;;;22.50;13.18;;;;;;;;;;6275441;22;20023;-85
2023/05/29 03:35:32;;;;;;;24.00;12.60;;;;;;;;;;6275593;22;20120;-84
2023/05/29 03:37:58;;;;;;;19.13;10.75;;;;;;;;;;6249609;22;20015;-84
2023/05/29 03:40:24;;;;;;;26.00;12.48;;;;;;;;;;6277340;22;20007;-85
2023/05/29 03:42:50;;;;;;;21.40;14.30;;;;;;;;;;6275772;22;20011;-84
2023/05/29 03:45:16;;;;;;;23.88;13.48;;;;;;;;;;6248959;22;20110;-84
2023/05/29 03:47:42;;;;;;;22.17;9.38;;;;;;;;;;6249216;22;20008;-84
2023/05/29 03:50:09;;;;;;;25.35;10.10;;;;;;;;;;6249612;22;20039;-84
2023/05/29 03:52:35;;;;;;;23.30;9.32;;;;;;;;;;6275068;22;20129;-84
2023/05/29 03:55:02;;;;;;;20.35;9.25;;;;;;;;;;6249419;22;20015;-84
2023/05/29 03:57:28;;;;;;;20.80;10.25;;;;;;;;;;6248790;22;20451;-84
2023/05/29 03:59:54;;;;;;;23.52;11.25;;;;;;;;;;6249012;22;20039;-82
2023/05/29 04:02:20;;;;;;;23.25;11.52;;;;;;;;;;6276199;22;20015;-83
2023/05/29 04:04:46;;;;;;;17.55;9.63;;;;;;;;;;6275307;22;20012;-85
2023/05/29 04:07:12;;;;;;;19.60;9.07;;;;;;;;;;6249408;22;20023;-84
2023/05/29 04:09:38;;;;;;;18.30;10.15;;;;;;;;;;6274345;22;20012;-84
2023/05/29 04:12:05;;;;;;;25.88;12.30;;;;;;;;;;6274753;22;20012;-84
2023/05/29 04:14:31;;;;;;;20.08;9.20;;;;;;;;;;6248924;22;20012;-84
2023/05/29 04:16:57;;;;;;;26.23;10.00;;;;;;;;;;6276979;22;20018;-84
2023/05/29 04:19:23;;;;;;;20.85;9.25;;;;;;;;;;6273954;22;20446;-84
2023/05/29 04:21:49;;;;;;;21.50;8.88;;;;;;;;;;6249493;22;20015;-84
2023/05/29 04:24:15;;;;;;;19.13;8.73;;;;;;;;;;6274935;22;20016;-83
2023/05/29 04:26:41;;;;;;;15.43;8.85;;;;;;;;;;6249242;22;20023;-83
2023/05/29 04:29:09;;;;;;;21.20;8.57;;;;;;;;;;6274614;22;20059;-84
2023/05/29 04:31:38;;;;;;;20.30;9.05;;;;;;;;;;6277158;22;20476;-85
2023/05/29 04:34:07;;;;;;;24.33;7.00;;;;;;;;;;6274971;22;20012;-84
2023/05/29 04:36:33;;;;;;;25.25;9.52;;;;;;;;;;6248655;22;20401;-84
2023/05/29 04:38:59;;;;;;;20.15;7.85;;;;;;;;;;6248996;22;20019;-84
2023/05/29 04:41:29;;;;;;;21.08;7.53;;;;;;;;;;6277553;22;20019;-84
2023/05/29 04:43:58;;;;;;;20.65;7.72;;;;;;;;;;6248761;22;20011;-84
2023/05/29 04:46:25;;;;;;;21.92;6.72;;;;;;;;;;6249619;22;20065;-83
2023/05/29 04:48:54;;;;;;;18.88;7.60;;;;;;;;;;6250064;22;20038;-83
2023/05/29 04:51:21;;;;;;;19.10;7.70;;;;;;;;;;6249061;22;20018;-84
2023/05/29 04:53:48;;;;;;;25.50;8.13;;;;;;;;;;6273862;22;20450;-84
2023/05/29 04:56:15;;;;;;;25.05;8.13;;;;;;;;;;6248582;22;20008;-84
2023/05/29 04:58:42;;;;;;;24.27;8.80;;;;;;;;;;6276750;22;20086;-84
2023/05/29 05:01:09;;;;;;;23.10;8.05;;;;;;;;;;6275178;22;20018;-84
2023/05/29 05:03:35;;;;;;;21.77;8.38;;;;;;;;;;6274463;22;20020;-84
2023/05/29 05:06:06;;;;;;;19.20;8.45;;;;;;;;;;6273914;22;20062;-85
2023/05/29 05:08:32;;;;;;;26.48;8.80;;;;;;;;;;6248654;22;20012;-84
2023/05/29 05:10:59;;;;;;;15.82;8.88;;;;;;;;;;6248458;22;20159;-84
2023/05/29 05:13:25;;;;;;;18.85;8.52;;;;;;;;;;6274741;22;20197;-85
2023/05/29 05:15:51;;;;;;;23.90;10.68;;;;;;;;;;6276797;22;20076;-84
2023/05/29 05:18:17;;;;;;;21.48;9.55;;;;;;;;;;6249193;22;20023;-85
2023/05/29 05:20:43;;;;;;;25.70;10.40;;;;;;;;;;6275309;22;20365;-85
2023/05/29 05:23:10;;;;;;;21.08;8.63;;;;;;;;;;6249058;22;20022;-84
2023/05/29 05:25:37;;;;;;;17.88;8.73;;;;;;;;;;6249513;22;20016;-84
2023/05/29 05:28:03;;;;;;;18.17;6.40;;;;;;;;;;6248655;22;20015;-85
2023/05/29 05:30:29;;;;;;;20.75;5.47;;;;;;;;;;6275624;22;20020;-84
2023/05/29 05:32:55;;;;;;;15.27;4.60;;;;;;;;;;6274991;22;20015;-85
2023/05/29 05:35:21;;;;;;;16.65;4.63;;;;;;;;;;6248645;22;20008;-85
2023/05/29 05:37:48;;;;;;;20.23;5.78;;;;;;;;;;6274503;22;20437;-85
2023/05/29 05:40:14;;;;;;;20.92;5.05;;;;;;;;;;6273959;22;20016;-84
2023/05/29 05:42:40;;;;;;;14.45;4.32;;;;;;;;;;6276498;22;20015;-84
2023/05/29 05:45:06;;;;;;;21.27;5.20;;;;;;;;;;6276112;22;20018;-84
2023/05/29 05:47:32;;;;;;;16.92;4.50;;;;;;;;;;6274921;22;20022;-84
2023/05/29 05:49:59;;;;;;;19.15;5.18;;;;;;;;;;6275576;22;20026;-83
2023/05/29 05:52:31;;;;;;;14.25;4.88;;;;;;;;;;6275220;22;20020;-84
2023/05/29 05:54:57;;;;;;;19.70;5.63;;;;;;;;;;6274985;22;20187;-84
2023/05/29 05:57:23;;;;;;;21.15;5.13;;;;;;;;;;6275646;22;20069;-84
2023/05/29 05:59:49;;;;;;;18.02;5.32;;;;;;;;;;6251028;22;20016;-85
2023/05/29 06:02:15;;;;;;;21.00;5.50;;;;;;;;;;6250214;22;20016;-84
2023/05/29 06:04:41;;;;;;;17.45;5.43;;;;;;;;;;6276446;22;20358;-83
2023/05/29 06:07:08;;;;;;;23.50;6.68;;;;;;;;;;6275961;22;20469;-84
2023/05/29 06:09:34;;;;;;;14.85;6.43;;;;;;;;;;6274862;22;20072;-85
2023/05/29 06:12:00;;;;;;;23.88;6.20;;;;;;;;;;6273167;22;20057;-84
2023/05/29 06:14:26;;;;;;;29.00;6.60;;;;;;;;;;6273698;22;20078;-85
2023/05/29 06:16:53;;;;;;;21.90;6.45;;;;;;;;;;6273258;22;20019;-85
2023/05/29 06:19:19;;;;;;;19.75;6.55;;;;;;;;;;6247729;22;20301;-84
2023/05/29 06:21:45;;;;;;;24.95;6.75;;;;;;;;;;6247579;22;20058;-84
2023/05/29 06:24:11;;;;;;;22.00;8.00;;;;;;;;;;6247050;22;20141;-85
2023/05/29 06:26:37;;;;;;;18.13;6.35;;;;;;;;;;6247429;22;20047;-85
2023/05/29 06:29:03;;;;;;;20.05;7.18;;;;;;;;;;6247690;22;20014;-85
2023/05/29 06:31:30;;;;;;;18.10;6.20;;;;;;;;;;6273502;22;20012;-85
2023/05/29 06:33:57;;;;;;;19.05;5.80;;;;;;;;;;6247479;22;20011;-84
2023/05/29 06:36:22;;;;;;;17.15;5.07;;;;;;;;;;6272880;22;20094;-85
2023/05/29 06:38:49;;;;;;;16.42;5.10;;;;;;;;;;6272493;22;20022;-85
2023/05/29 06:41:15;;;;;;;15.48;5.22;;;;;;;;;;6247373;22;20023;-85
2023/05/29 06:43:41;;;;;;;15.65;5.90;;;;;;;;;;6274801;22;20015;-85
2023/05/29 06:46:07;;;;;;;16.80;6.35;;;;;;;;;;6272785;22;20015;-85
2023/05/29 06:48:34;;;;;;;14.85;5.30;;;;;;;;;;6274662;22;20012;-85
2023/05/29 06:51:00;;;;;;;19.85;5.70;;;;;;;;;;6247248;22;20306;-84
2023/05/29 06:53:26;;;;;;;19.95;5.53;;;;;;;;;;6297214;22;20034;-85
2023/05/29 06:55:53;;;;;;;19.00;5.28;;;;;;;;;;6251907;22;20011;-84
2023/05/29 06:58:19;;;;;;;19.13;6.35;;;;;;;;;;6251680;22;20019;-85
2023/05/29 07:00:45;;;;;;;14.90;5.20;;;;;;;;;;6251810;22;20019;-84
2023/05/29 07:03:11;;;;;;;23.25;5.50;;;;;;;;;;6304945;22;20047;-84
2023/05/29 07:05:37;;;;;;;19.02;5.80;;;;;;;;;;6252569;22;20046;-85
2023/05/29 07:08:03;;;;;;;16.23;5.85;;;;;;;;;;6276703;22;20015;-84
2023/05/29 07:10:29;;;;;;;18.27;6.55;;;;;;;;;;6277667;22;20189;-84
2023/05/29 07:12:55;;;;;;;18.80;6.30;;;;;;;;;;6277974;22;20015;-84
2023/05/29 07:15:21;;;;;;;20.50;6.90;;;;;;;;;;6277954;22;20019;-85
2023/05/29 07:17:47;;;;;;;18.50;5.60;;;;;;;;;;6252262;22;20043;-84
2023/05/29 07:20:14;;;;;;;20.58;5.68;;;;;;;;;;6277990;22;20260;-84
2023/05/29 07:22:40;;;;;;;23.08;6.57;;;;;;;;;;6277412;22;20015;-85
2023/05/29 07:25:06;;;;;;;26.35;6.35;;;;;;;;;;6252094;22;20011;-84
2023/05/29 07:27:32;;;;;;;21.92;6.90;;;;;;;;;;6277597;22;20111;-84
2023/05/29 07:29:58;;;;;;;23.52;6.55;;;;;;;;;;6251908;22;20038;-85
2023/05/29 07:32:24;;;;;;;26.80;7.15;;;;;;;;;;6252210;22;20033;-84
2023/05/29 07:34:51;;;;;;;19.20;7.85;;;;;;;;;;6251717;22;20012;-84
2023/05/29 07:37:18;;;;;;;21.65;6.82;;;;;;;;;;6276967;22;20013;-83
2023/05/29 07:39:45;;;;;;;23.45;7.35;;;;;;;;;;6277635;22;20011;-84
2023/05/29 07:42:11;;;;;;;24.75;7.18;;;;;;;;;;6277705;22;20015;-84
2023/05/29 07:44:37;;;;;;;19.50;6.95;;;;;;;;;;6277283;22;20018;-85
2023/05/29 07:47:03;;;;;;;23.48;7.35;;;;;;;;;;6251919;22;20026;-85
2023/05/29 07:49:30;;;;;;;22.45;6.15;;;;;;;;;;6305170;22;20012;-84
2023/05/29 07:51:56;;;;;;;20.73;6.40;;;;;;;;;;6304054;22;20023;-84
2023/05/29 07:54:22;;;;;;;20.02;6.40;;;;;;;;;;6277344;22;20395;-84
2023/05/29 07:56:48;;;;;;;19.10;5.50;;;;;;;;;;6277502;22;20016;-84
2023/05/29 07:59:14;;;;;;;19.77;6.50;;;;;;;;;;6305003;22;20011;-85
2023/05/29 08:01:40;;;;;;;20.73;6.68;;;;;;;;;;6277305;22;20014;-84
2023/05/29 08:04:06;;;;;;;23.50;7.20;;;;;;;;;;6304972;22;20011;-84
2023/05/29 08:06:32;;;;;;;23.75;8.00;;;;;;;;;;6251066;22;20041;-85
2023/05/29 08:08:58;;;;;;;25.85;7.13;;;;;;;;;;6277558;22;20073;-84
2023/05/29 08:11:25;;;;;;;19.33;7.28;;;;;;;;;;6251622;22;20018;-84
2023/05/29 08:13:51;;;;;;;19.38;6.13;;;;;;;;;;6252053;22;20091;-85
2023/05/29 08:16:17;;;;;;;18.40;6.57;;;;;;;;;;6251847;22;20049;-85
2023/05/29 08:18:43;;;;;;;22.90;5.80;;;;;;;;;;6251547;22;20018;-85
2023/05/29 08:21:10;;;;;;;18.60;5.53;;;;;;;;;;6304267;22;20090;-85
2023/05/29 08:23:36;;;;;;;17.55;5.60;;;;;;;;;;6276946;22;20030;-85
2023/05/29 08:26:03;;;;;;;21.25;5.60;;;;;;;;;;6251526;22;20086;-85
2023/05/29 08:28:29;;;;;;;17.23;5.85;;;;;;;;;;6251326;22;20061;-85
2023/05/29 08:30:55;;;;;;;22.30;6.57;;;;;;;;;;6277514;22;20007;-84
2023/05/29 08:33:21;;;;;;;21.40;6.28;;;;;;;;;;6251409;22;20019;-85
2023/05/29 08:35:47;;;;;;;22.85;6.57;;;;;;;;;;6250920;22;20023;-84
2023/05/29 08:38:13;;;;;;;22.98;6.40;;;;;;;;;;6277049;22;20019;-85
2023/05/29 08:40:40;;;;;;;18.70;7.85;;;;;;;;;;6304630;22;20023;-85
2023/05/29 08:43:06;;;;;;;18.80;7.82;;;;;;;;;;6251402;22;20011;-85
2023/05/29 08:45:35;;;;;;;19.77;7.03;;;;;;;;;;6251291;22;20008;-85
2023/05/29 08:48:01;;;;;;;23.88;6.68;;;;;;;;;;6251200;22;20042;-85
2023/05/29 08:50:27;;;;;;;20.80;7.78;;;;;;;;;;6276055;22;20012;-84
2023/05/29 08:52:53;;;;;;;23.90;8.15;;;;;;;;;;6303990;22;20015;-85
2023/05/29 08:55:19;;;;;;;17.75;8.15;;;;;;;;;;6276787;22;20098;-85
2023/05/29 08:57:46;;;;;;;24.17;10.32;;;;;;;;;;6276632;22;20015;-85
2023/05/29 09:00:12;;;;;;;23.65;8.60;;;;;;;;;;6251150;22;20022;-85
2023/05/29 09:02:45;;;;;;;26.20;8.25;;;;;;;;;;6276280;22;20019;-86
2023/05/29 09:05:12;;;;;;;19.65;8.02;;;;;;;;;;6276765;22;20011;-85
2023/05/29 09:07:39;;;;;;;17.83;7.70;;;;;;;;;;6276604;22;20087;-85
2023/05/29 09:10:09;;;;;;;17.35;6.05;;;;;;;;;;6277059;22;20336;-86
2023/05/29 09:12:35;;;;;;;25.70;6.93;;;;;;;;;;6251314;22;20015;-85
2023/05/29 09:15:02;;;;;;;21.80;8.38;;;;;;;;;;6251066;22;20295;-84
2023/05/29 09:17:34;;;;;;;22.52;9.40;;;;;;;;;;6276211;22;20011;-85
2023/05/29 09:20:01;;;;;;;19.27;8.00;;;;;;;;;;6276745;22;20086;-85
2023/05/29 09:22:27;;;;;;;22.95;9.40;;;;;;;;;;6305021;22;20011;-85
2023/05/29 09:24:53;;;;;;;27.40;11.25;;;;;;;;;;6253076;22;20061;-85
2023/05/29 09:27:20;;;;;;;19.00;8.30;;;;;;;;;;6306062;22;20018;-85
2023/05/29 09:29:46;;;;;;;21.30;8.40;;;;;;;;;;6278633;22;20050;-85
2023/05/29 09:32:16;;;;;;;41.45;31.20;;;;;;;;;;6252384;22;20037;-85
2023/05/29 09:34:43;;;;;;;19.52;8.10;;;;;;;;;;6278986;22;20097;-85
2023/05/29 09:37:10;;;;;;;26.27;8.95;;;;;;;;;;6253032;22;20007;-85
2023/05/29 09:39:43;;;;;;;18.42;8.70;;;;;;;;;;6253049;22;20125;-85
2023/05/29 09:42:09;;;;;;;21.95;8.07;;;;;;;;;;6278548;22;20043;-85
2023/05/29 09:44:35;;;;;;;19.95;7.32;;;;;;;;;;6278485;22;20097;-85
2023/05/29 09:47:02;;;;;;;18.55;7.72;;;;;;;;;;6252475;22;20094;-85
2023/05/29 09:49:28;;;;;;;21.05;8.88;;;;;;;;;;6252917;22;20012;-85
2023/05/29 09:51:54;;;;;;;23.27;7.80;;;;;;;;;;6305823;22;20015;-85
2023/05/29 09:54:20;;;;;;;21.80;9.45;;;;;;;;;;6252904;22;20050;-85
2023/05/29 09:56:47;;;;;;;24.23;7.97;;;;;;;;;;6252791;22;20011;-84
2023/05/29 09:59:14;;;;;;;30.70;9.57;;;;;;;;;;6306092;22;20011;-85
2023/05/29 10:01:41;;;;;;;22.77;8.65;;;;;;;;;;6305268;22;20050;-84
2023/05/29 10:04:09;;;;;;;27.55;10.45;;;;;;;;;;6306099;22;20045;-85
2023/05/29 10:06:37;;;;;;;26.80;8.18;;;;;;;;;;6305983;22;20022;-84
2023/05/29 10:09:03;;;;;;;17.83;7.47;;;;;;;;;;6278385;22;20306;-84
2023/05/29 10:11:31;;;;;;;22.02;8.43;;;;;;;;;;6278659;22;20018;-84
2023/05/29 10:13:57;;;;;;;22.75;8.80;;;;;;;;;;6252601;22;20425;-86
2023/05/29 10:16:25;;;;;;;16.10;7.20;;;;;;;;;;6277460;22;20007;-84
2023/05/29 10:18:54;;;;;;;22.92;7.18;;;;;;;;;;6278597;22;20019;-84
2023/05/29 10:21:21;;;;;;;21.50;8.15;;;;;;;;;;6305847;22;20375;-85
2023/05/29 10:23:51;;;;;;;22.70;7.90;;;;;;;;;;6278334;22;20011;-84
2023/05/29 10:26:30;;;;;;;22.58;8.20;;;;;;;;;;6252595;22;20033;-85
2023/05/29 10:29:13;;;;;;;20.52;7.97;;;;;;;;;;6252485;22;20087;-85
2023/05/29 10:31:42;;;;;;;20.90;9.60;;;;;;;;;;6309069;22;20484;-84
2023/05/29 10:34:28;;;;;;;19.92;7.03;;;;;;;;;;6259213;22;20045;-85
2023/05/29 10:37:09;;;;;;;22.35;7.78;;;;;;;;;;6283390;22;20011;-84
2023/05/29 10:39:35;;;;;;;15.90;9.10;;;;;;;;;;6282729;22;20099;-85
2023/05/29 10:42:01;;;;;;;27.80;12.20;;;;;;;;;;6257418;22;20070;-85
2023/05/29 10:44:30;;;;;;;16.40;6.93;;;;;;;;;;6309133;22;20011;-84
2023/05/29 10:46:59;;;;;;;20.52;7.75;;;;;;;;;;6256484;22;20380;-84
2023/05/29 10:49:26;;;;;;;17.25;6.07;;;;;;;;;;6257469;22;20018;-84
2023/05/29 10:51:52;;;;;;;15.63;6.32;;;;;;;;;;6283621;22;20007;-85
2023/05/29 10:54:25;;;;;;;16.60;5.82;;;;;;;;;;6284207;22;20026;-84
2023/05/29 10:56:59;;;;;;;24.60;7.68;;;;;;;;;;6257231;22;20086;-85
2023/05/29 10:59:28;;;;;;;;;;;;;;;;;;6282078;22;20370;-84
2023/05/29 11:01:55;;;;;;;21.80;5.13;;;;;;;;;;6257809;22;19933;-84
2023/05/29 11:04:21;;;;;;;14.15;5.47;;;;;;;;;;6282273;22;20041;-84
2023/05/29 11:06:47;;;;;;;17.83;6.57;;;;;;;;;;6281847;22;20011;-84
2023/05/29 11:09:34;;;;;;;18.02;6.43;;;;;;;;;;6256095;22;20421;-85
2023/05/29 11:12:11;;;;;;;24.67;6.15;;;;;;;;;;6256458;22;20316;-84
2023/05/29 11:14:56;;;;;;;19.85;6.13;;;;;;;;;;6254856;22;20011;-84
2023/05/29 11:17:37;;;;;;;23.10;7.15;;;;;;;;;;6283005;22;20042;-84
2023/05/29 11:20:08;;;;;;;19.80;5.93;;;;;;;;;;6279414;22;20099;-82
2023/05/29 11:22:40;;;;;;;21.40;6.95;;;;;;;;;;6279657;22;20042;-82
2023/05/29 11:25:07;;;;;;;19.90;9.10;;;;;;;;;;6253853;22;20015;-82
2023/05/29 11:27:34;;;;;;;21.63;9.38;;;;;;;;;;6254106;22;20029;-84
2023/05/29 11:30:00;;;;;;;21.00;7.35;;;;;;;;;;6280581;22;20071;-85
2023/05/29 11:32:28;;;;;;;18.45;6.53;;;;;;;;;;6257034;22;20020;-83
2023/05/29 11:34:56;;;;;;;16.33;6.95;;;;;;;;;;6281667;22;20082;-84
2023/05/29 11:37:23;;;;;;;21.10;9.77;;;;;;;;;;6283186;22;20069;-83
2023/05/29 11:39:49;;;;;;;15.95;7.50;;;;;;;;;;6254349;22;20377;-81
2023/05/29 11:42:15;;;;;;;21.05;11.13;;;;;;;;;;6253354;22;20495;-82
2023/05/29 11:44:42;;;;;;;22.98;10.10;;;;;;;;;;6250389;22;20409;-83
2023/05/29 11:47:08;;;;;;;23.25;9.43;;;;;;;;;;6278933;22;20054;-82
2023/05/29 11:49:36;;;;;;;19.42;8.77;;;;;;;;;;6251968;22;20093;-81
2023/05/29 11:52:08;;;;;;;18.42;7.78;;;;;;;;;;6253288;22;20022;-82
2023/05/29 11:54:34;;;;;;;27.40;10.85;;;;;;;;;;6307152;22;20123;-82
2023/05/29 11:57:02;;;;;;;18.73;6.68;;;;;;;;;;6307649;22;20011;-89
2023/05/29 11:59:31;;;;;;;20.13;5.85;;;;;;;;;;6282524;22;20487;-84
2023/05/29 12:01:57;;;;;;;15.43;6.38;;;;;;;;;;6256752;22;20046;-84
2023/05/29 12:04:23;;;;;;;24.63;11.40;;;;;;;;;;6283071;22;20011;-86
2023/05/29 12:06:50;;;;;;;20.10;9.43;;;;;;;;;;6257802;22;20007;-84
2023/05/29 12:09:26;;;;;;;21.08;9.48;;;;;;;;;;6310247;22;20066;-84
2023/05/29 12:11:52;;;;;;;23.30;17.60;;;;;;;;;;6281676;22;20061;-83
2023/05/29 12:14:18;;;;;;;21.88;9.57;;;;;;;;;;6259040;22;20065;-84
2023/05/29 12:16:44;;;;;;;18.17;9.82;;;;;;;;;;6284055;22;20018;-86
2023/05/29 12:19:11;;;;;;;20.40;10.80;;;;;;;;;;6257561;22;20022;-84
2023/05/29 12:21:42;;;;;;;18.27;7.80;;;;;;;;;;6309707;22;20011;-83
2023/05/29 12:24:08;;;;;;;27.48;17.63;;;;;;;;;;6254804;22;20445;-82
2023/05/29 12:26:34;;;;;;;21.38;8.43;;;;;;;;;;6252721;22;20353;-83
2023/05/29 12:29:03;;;;;;;18.50;9.40;;;;;;;;;;6284723;22;20015;-84
2023/05/29 12:31:31;;;;;;;19.95;6.03;;;;;;;;;;6282240;22;20008;-84
2023/05/29 12:34:01;;;;;;;16.58;5.63;;;;;;;;;;6281411;22;20497;-83
2023/05/29 12:36:27;;;;;;;18.42;7.22;;;;;;;;;;6281712;22;20018;-81
2023/05/29 12:38:53;;;;;;;16.63;6.32;;;;;;;;;;6255232;22;20434;-84
2023/05/29 12:41:24;;;;;;;24.75;9.20;;;;;;;;;;6257340;22;20011;-85
2023/05/29 12:43:50;;;;;;;18.75;9.40;;;;;;;;;;6255986;22;20118;-82
2023/05/29 12:46:17;;;;;;;16.77;7.45;;;;;;;;;;6281026;22;20011;-84
2023/05/29 12:48:43;;;;;;;23.15;7.55;;;;;;;;;;6256454;22;20064;-83
2023/05/29 12:51:09;;;;;;;18.42;9.10;;;;;;;;;;6284275;22;20015;-82
2023/05/29 12:53:35;;;;;;;20.88;8.25;;;;;;;;;;6255851;22;20019;-84
2023/05/29 12:56:01;;;;;;;21.08;7.60;;;;;;;;;;6311468;22;20015;-86
2023/05/29 12:58:27;;;;;;;19.40;7.15;;;;;;;;;;6287894;22;20021;-85
2023/05/29 13:00:57;;;;;;;16.63;6.40;;;;;;;;;;6265642;22;20034;-86
2023/05/29 13:03:23;;;;;;;16.55;4.90;;;;;;;;;;6291060;22;20022;-86
2023/05/29 13:05:50;;;;;;;21.95;6.97;;;;;;;;;;6266575;22;20015;-84
2023/05/29 13:08:16;;;;;;;13.40;5.55;;;;;;;;;;6294099;22;20012;-89
2023/05/29 13:10:42;;;;;;;14.18;4.95;;;;;;;;;;6268331;22;20015;-89
2023/05/29 13:13:09;;;;;;;17.35;5.97;;;;;;;;;;6291523;22;20083;-87
2023/05/29 13:15:35;;;;;;;18.80;5.63;;;;;;;;;;6318339;22;20059;-87
2023/05/29 13:18:01;;;;;;;15.80;5.28;;;;;;;;;;6265791;22;20019;-88
2023/05/29 13:20:28;;;;;;;13.68;4.35;;;;;;;;;;6289918;22;20011;-88
2023/05/29 13:22:56;;;;;;;15.98;4.97;;;;;;;;;;6291533;22;20022;-86
2023/05/29 13:25:25;;;;;;;12.32;4.65;;;;;;;;;;6320103;22;20025;-90
2023/05/29 13:27:51;;;;;;;15.18;4.80;;;;;;;;;;6292650;22;20053;-88
2023/05/29 13:30:18;;;;;;;16.92;5.22;;;;;;;;;;6287469;22;20007;-86
2023/05/29 13:32:44;;;;;;;15.18;5.10;;;;;;;;;;6290321;22;20015;-86
2023/05/29 13:35:10;;;;;;;13.82;4.75;;;;;;;;;;6286784;22;20060;-81
2023/05/29 13:37:39;;;;;;;11.13;3.47;;;;;;;;;;6314775;22;20011;-83
2023/05/29 13:40:06;;;;;;;12.20;7.47;;;;;;;;;;6313105;22;20019;-82
2023/05/29 13:42:32;;;;;;;12.45;4.75;;;;;;;;;;6259577;22;20011;-82
2023/05/29 13:44:58;;;;;;;16.55;5.70;;;;;;;;;;6284208;22;20094;-83
2023/05/29 13:47:28;;;;;;;19.45;5.47;;;;;;;;;;6288226;22;20373;-82
2023/05/29 13:49:54;;;;;;;13.80;4.75;;;;;;;;;;6314076;22;20087;-82
2023/05/29 13:52:20;;;;;;;15.90;4.10;;;;;;;;;;6278204;22;20430;-87
2023/05/29 13:54:46;;;;;;;11.43;4.30;;;;;;;;;;6252588;22;20093;-87
2023/05/29 13:57:12;;;;;;;13.70;5.50;;;;;;;;;;6280271;22;20012;-84
2023/05/29 13:59:38;;;;;;;12.88;4.50;;;;;;;;;;6253045;22;20064;-89
2023/05/29 14:02:05;;;;;;;15.98;3.95;;;;;;;;;;6248994;22;20098;-87
2023/05/29 14:04:31;;;;;;;12.52;3.83;;;;;;;;;;6273208;22;20008;-85
2023/05/29 14:06:57;;;;;;;17.95;4.38;;;;;;;;;;6248220;22;20018;-88
2023/05/29 14:09:27;;;;;;;16.88;4.68;;;;;;;;;;6275575;22;20016;-89
2023/05/29 14:11:57;;;;;;;19.80;6.82;;;;;;;;;;6249144;22;20011;-90
2023/05/29 14:14:23;;;;;;;19.77;7.78;;;;;;;;;;6276945;22;20670;-90
2023/05/29 14:16:49;;;;;;;19.17;5.78;;;;;;;;;;6249489;22;20090;-87
2023/05/29 14:19:16;;;;;;;17.58;7.13;;;;;;;;;;6248823;22;20444;-88
2023/05/29 14:21:42;;;;;;;15.18;4.88;;;;;;;;;;6276157;22;20039;-89
2023/05/29 14:24:08;;;;;;;15.48;5.53;;;;;;;;;;6276367;22;20019;-89
2023/05/29 14:26:35;;;;;;;15.85;5.40;;;;;;;;;;6247704;22;20012;-87